sensor_id;sensor_type;location;lat;lon;timestamp;pressure;altitude;pressure_sealevel;temperature;humidity
7180;BME280;3631;42.152;24.756;2023-01-28T00:01:07;98611.22;;;5.18;100.00
7180;BME280;3631;42.152;24.756;2023-01-28T00:03:34;98617.16;;;5.20;100.00
7180;BME280;3631;42.152;24.756;2023-01-28T00:06:02;98619.94;;;5.10;100.00
7180;BME280;3631;42.152;24.756;2023-01-28T00:08:29;98618.94;;;5.18;100.00
7180;BME280;3631;42.152;24.756;2023-01-28T00:10:58;98623.22;;;5.19;100.00
7180;BME280;3631;42.152;24.756;2023-01-28T00:13:26;98617.25;;;5.17;100.00
7180;BME280;3631;42.152;24.756;2023-01-28T00:15:58;98611.28;;;5.15;100.00
7180;BME280;3631;42.152;24.756;2023-01-28T00:18:26;98620.66;;;5.17;100.00
7180;BME280;3631;42.152;24.756;2023-01-28T00:20:57;98625.78;;;5.19;100.00
7180;BME280;3631;42.152;24.756;2023-01-28T00:23:24;98621.66;;;5.10;100.00
7180;BME280;3631;42.152;24.756;2023-01-28T00:25:51;98629.28;;;5.15;100.00
7180;BME280;3631;42.152;24.756;2023-01-28T00:28:19;98637.00;;;5.15;100.00
7180;BME280;3631;42.152;24.756;2023-01-28T00:30:46;98631.19;;;5.06;100.00
7180;BME280;3631;42.152;24.756;2023-01-28T00:33:15;98641.53;;;5.03;100.00
7180;BME280;3631;42.152;24.756;2023-01-28T00:35:42;98639.00;;;5.00;100.00
7180;BME280;3631;42.152;24.756;2023-01-28T00:38:09;98645.91;;;4.98;100.00
7180;BME280;3631;42.152;24.756;2023-01-28T00:40:36;98651.19;;;4.92;100.00
7180;BME280;3631;42.152;24.756;2023-01-28T00:43:03;98649.31;;;4.99;100.00
7180;BME280;3631;42.152;24.756;2023-01-28T00:45:30;98659.53;;;5.03;100.00
7180;BME280;3631;42.152;24.756;2023-01-28T00:47:57;98666.44;;;5.00;100.00
7180;BME280;3631;42.152;24.756;2023-01-28T00:50:25;98666.66;;;4.89;100.00
7180;BME280;3631;42.152;24.756;2023-01-28T00:52:52;98671.81;;;4.88;100.00
7180;BME280;3631;42.152;24.756;2023-01-28T00:55:19;98665.84;;;4.86;100.00
7180;BME280;3631;42.152;24.756;2023-01-28T00:57:46;98664.13;;;4.88;100.00
7180;BME280;3631;42.152;24.756;2023-01-28T01:00:13;98663.22;;;4.90;100.00
7180;BME280;3631;42.152;24.756;2023-01-28T01:02:41;98661.47;;;4.92;100.00
7180;BME280;3631;42.152;24.756;2023-01-28T01:05:08;98666.47;;;4.98;100.00
7180;BME280;3631;42.152;24.756;2023-01-28T01:07:36;98666.59;;;4.94;100.00
7180;BME280;3631;42.152;24.756;2023-01-28T01:10:08;98670.03;;;4.93;100.00
7180;BME280;3631;42.152;24.756;2023-01-28T01:12:35;98664.88;;;4.93;100.00
7180;BME280;3631;42.152;24.756;2023-01-28T01:15:03;98668.31;;;4.93;100.00
7180;BME280;3631;42.152;24.756;2023-01-28T01:17:33;98666.56;;;4.95;100.00
7180;BME280;3631;42.152;24.756;2023-01-28T01:20:02;98668.34;;;4.90;100.00
7180;BME280;3631;42.152;24.756;2023-01-28T01:22:32;98668.38;;;4.89;100.00
7180;BME280;3631;42.152;24.756;2023-01-28T01:25:00;98666.69;;;4.88;100.00
7180;BME280;3631;42.152;24.756;2023-01-28T01:27:28;98658.25;;;4.81;100.00
7180;BME280;3631;42.152;24.756;2023-01-28T01:29:55;98672.66;;;4.90;100.00
7180;BME280;3631;42.152;24.756;2023-01-28T01:32:23;98672.66;;;4.90;100.00
7180;BME280;3631;42.152;24.756;2023-01-28T01:34:50;98678.69;;;4.87;100.00
7180;BME280;3631;42.152;24.756;2023-01-28T01:37:17;98679.41;;;4.95;100.00
7180;BME280;3631;42.152;24.756;2023-01-28T01:39:44;98680.28;;;4.94;100.00
7180;BME280;3631;42.152;24.756;2023-01-28T01:42:13;98683.91;;;4.84;100.00
7180;BME280;3631;42.152;24.756;2023-01-28T01:44:58;98683.16;;;4.78;100.00
7180;BME280;3631;42.152;24.756;2023-01-28T01:47:31;98689.97;;;4.80;100.00
7180;BME280;3631;42.152;24.756;2023-01-28T01:50:01;98685.41;;;4.96;100.00
7180;BME280;3631;42.152;24.756;2023-01-28T01:52:31;98693.88;;;4.99;100.00
7180;BME280;3631;42.152;24.756;2023-01-28T01:55:01;98693.19;;;4.91;100.00
7180;BME280;3631;42.152;24.756;2023-01-28T01:57:33;98698.38;;;4.88;100.00
7180;BME280;3631;42.152;24.756;2023-01-28T02:00:05;98694.19;;;4.84;100.00
7180;BME280;3631;42.152;24.756;2023-01-28T02:02:35;98702.66;;;4.89;100.00
7180;BME280;3631;42.152;24.756;2023-01-28T02:05:04;98708.34;;;5.06;100.00
7180;BME280;3631;42.152;24.756;2023-01-28T02:07:32;98717.81;;;5.03;100.00
7180;BME280;3631;42.152;24.756;2023-01-28T02:09:59;98704.94;;;5.04;100.00
7180;BME280;3631;42.152;24.756;2023-01-28T02:12:28;98711.75;;;5.07;100.00
7180;BME280;3631;42.152;24.756;2023-01-28T02:15:00;98716.09;;;5.03;100.00
7180;BME280;3631;42.152;24.756;2023-01-28T02:17:29;98719.38;;;5.11;100.00
7180;BME280;3631;42.152;24.756;2023-01-28T02:19:58;98724.63;;;5.05;100.00
7180;BME280;3631;42.152;24.756;2023-01-28T02:25:52;98722.72;;;5.15;100.00
7180;BME280;3631;42.152;24.756;2023-01-28T02:28:31;98728.13;;;5.03;100.00
7180;BME280;3631;42.152;24.756;2023-01-28T02:31:04;98740.09;;;5.04;100.00
7180;BME280;3631;42.152;24.756;2023-01-28T02:33:39;98732.25;;;5.10;100.00
7180;BME280;3631;42.152;24.756;2023-01-28T02:36:15;98729.03;;;4.99;100.00
7180;BME280;3631;42.152;24.756;2023-01-28T02:38:47;98719.53;;;5.02;100.00
7180;BME280;3631;42.152;24.756;2023-01-28T02:41:20;98730.47;;;5.14;100.00
7180;BME280;3631;42.152;24.756;2023-01-28T02:43:50;98729.66;;;5.11;100.00
7180;BME280;3631;42.152;24.756;2023-01-28T02:46:21;98733.03;;;5.14;100.00
7180;BME280;3631;42.152;24.756;2023-01-28T02:49:09;98735.34;;;5.27;100.00
7180;BME280;3631;42.152;24.756;2023-01-28T02:51:45;98739.59;;;5.30;100.00
7180;BME280;3631;42.152;24.756;2023-01-28T02:54:21;98740.56;;;5.23;100.00
7180;BME280;3631;42.152;24.756;2023-01-28T02:56:57;98742.31;;;5.22;100.00
7180;BME280;3631;42.152;24.756;2023-01-28T02:59:34;98749.19;;;5.20;100.00
7180;BME280;3631;42.152;24.756;2023-01-28T03:02:09;98741.53;;;5.19;100.00
7180;BME280;3631;42.152;24.756;2023-01-28T03:04:41;98754.34;;;5.20;100.00
7180;BME280;3631;42.152;24.756;2023-01-28T03:07:11;98752.69;;;5.18;100.00
7180;BME280;3631;42.152;24.756;2023-01-28T03:09:42;98750.09;;;5.19;100.00
7180;BME280;3631;42.152;24.756;2023-01-28T03:12:13;98745.88;;;5.15;100.00
7180;BME280;3631;42.152;24.756;2023-01-28T03:15:04;98754.56;;;5.08;100.00
7180;BME280;3631;42.152;24.756;2023-01-28T03:17:53;98758.91;;;5.07;100.00
7180;BME280;3631;42.152;24.756;2023-01-28T03:20:42;98753.69;;;5.10;100.00
7180;BME280;3631;42.152;24.756;2023-01-28T03:23:32;98763.00;;;5.18;100.00
7180;BME280;3631;42.152;24.756;2023-01-28T03:26:21;98754.56;;;5.08;100.00
7180;BME280;3631;42.152;24.756;2023-01-28T03:29:11;98760.47;;;5.15;100.00
7180;BME280;3631;42.152;24.756;2023-01-28T03:31:58;98758.13;;;5.02;100.00
7180;BME280;3631;42.152;24.756;2023-01-28T03:34:44;98759.16;;;4.92;100.00
7180;BME280;3631;42.152;24.756;2023-01-28T03:37:30;98759.91;;;4.97;100.00
7180;BME280;3631;42.152;24.756;2023-01-28T03:40:01;98763.25;;;5.02;100.00
7180;BME280;3631;42.152;24.756;2023-01-28T03:42:30;98768.41;;;5.02;100.00
7180;BME280;3631;42.152;24.756;2023-01-28T03:44:57;98772.72;;;5.00;100.00
7180;BME280;3631;42.152;24.756;2023-01-28T03:47:27;98776.00;;;5.08;100.00
7180;BME280;3631;42.152;24.756;2023-01-28T03:49:55;98770.84;;;5.08;100.00
7180;BME280;3631;42.152;24.756;2023-01-28T03:52:25;98769.19;;;5.07;100.00
7180;BME280;3631;42.152;24.756;2023-01-28T03:54:52;98758.94;;;5.06;100.00
7180;BME280;3631;42.152;24.756;2023-01-28T03:57:21;98775.09;;;5.11;100.00
7180;BME280;3631;42.152;24.756;2023-01-28T03:59:48;98775.06;;;5.13;100.00
7180;BME280;3631;42.152;24.756;2023-01-28T04:02:17;98785.38;;;5.11;100.00
7180;BME280;3631;42.152;24.756;2023-01-28T04:04:46;98783.59;;;5.16;100.00
7180;BME280;3631;42.152;24.756;2023-01-28T04:07:14;98785.38;;;5.11;100.00
7180;BME280;3631;42.152;24.756;2023-01-28T04:09:42;98790.72;;;5.00;100.00
7180;BME280;3631;42.152;24.756;2023-01-28T04:12:09;98784.00;;;4.95;100.00
7180;BME280;3631;42.152;24.756;2023-01-28T04:14:36;98777.25;;;4.88;100.00
7180;BME280;3631;42.152;24.756;2023-01-28T04:17:04;98779.03;;;4.84;100.00
7180;BME280;3631;42.152;24.756;2023-01-28T04:19:31;98784.22;;;4.81;100.00
7180;BME280;3631;42.152;24.756;2023-01-28T04:22:04;98784.13;;;4.86;100.00
7180;BME280;3631;42.152;24.756;2023-01-28T04:24:30;98783.44;;;4.76;100.00
7180;BME280;3631;42.152;24.756;2023-01-28T04:26:57;98792.97;;;4.71;100.00
7180;BME280;3631;42.152;24.756;2023-01-28T04:29:24;98789.72;;;4.61;100.00
7180;BME280;3631;42.152;24.756;2023-01-28T04:31:51;98784.50;;;4.63;100.00
7180;BME280;3631;42.152;24.756;2023-01-28T04:34:18;98794.91;;;4.58;100.00
7180;BME280;3631;42.152;24.756;2023-01-28T04:36:45;98787.22;;;4.55;100.00
7180;BME280;3631;42.152;24.756;2023-01-28T04:39:14;98789.09;;;4.46;100.00
7180;BME280;3631;42.152;24.756;2023-01-28T04:41:41;98793.34;;;4.48;100.00
7180;BME280;3631;42.152;24.756;2023-01-28T04:44:08;98796.78;;;4.47;100.00
7180;BME280;3631;42.152;24.756;2023-01-28T04:46:35;98801.06;;;4.47;100.00
7180;BME280;3631;42.152;24.756;2023-01-28T04:49:02;98808.56;;;4.62;100.00
7180;BME280;3631;42.152;24.756;2023-01-28T04:51:29;98805.19;;;4.57;100.00
7180;BME280;3631;42.152;24.756;2023-01-28T04:53:56;98812.22;;;4.46;100.00
7180;BME280;3631;42.152;24.756;2023-01-28T04:56:24;98811.34;;;4.47;100.00
7180;BME280;3631;42.152;24.756;2023-01-28T04:58:51;98829.16;;;4.57;100.00
7180;BME280;3631;42.152;24.756;2023-01-28T05:01:18;98829.41;;;4.42;100.00
7180;BME280;3631;42.152;24.756;2023-01-28T05:03:45;98822.50;;;4.46;100.00
7180;BME280;3631;42.152;24.756;2023-01-28T05:06:11;98836.16;;;4.49;100.00
7180;BME280;3631;42.152;24.756;2023-01-28T05:08:38;98836.19;;;4.48;100.00
7180;BME280;3631;42.152;24.756;2023-01-28T05:11:05;98843.03;;;4.47;100.00
7180;BME280;3631;42.152;24.756;2023-01-28T05:13:34;98843.06;;;4.46;100.00
7180;BME280;3631;42.152;24.756;2023-01-28T05:16:01;98830.22;;;4.44;100.00
7180;BME280;3631;42.152;24.756;2023-01-28T05:18:28;98838.75;;;4.48;100.00
7180;BME280;3631;42.152;24.756;2023-01-28T05:20:55;98848.19;;;4.46;100.00
7180;BME280;3631;42.152;24.756;2023-01-28T05:23:22;98842.03;;;4.56;100.00
7180;BME280;3631;42.152;24.756;2023-01-28T05:25:48;98847.16;;;4.57;100.00
7180;BME280;3631;42.152;24.756;2023-01-28T05:28:15;98848.03;;;4.55;100.00
7180;BME280;3631;42.152;24.756;2023-01-28T05:30:44;98853.97;;;4.60;100.00
7180;BME280;3631;42.152;24.756;2023-01-28T05:33:10;98848.78;;;4.63;100.00
7180;BME280;3631;42.152;24.756;2023-01-28T05:35:37;98857.31;;;4.65;100.00
7180;BME280;3631;42.152;24.756;2023-01-28T05:38:04;98847.88;;;4.65;100.00
7180;BME280;3631;42.152;24.756;2023-01-28T05:40:31;98851.31;;;4.64;100.00
7180;BME280;3631;42.152;24.756;2023-01-28T05:42:58;98861.63;;;4.63;100.00
7180;BME280;3631;42.152;24.756;2023-01-28T05:45:25;98860.72;;;4.65;100.00
7180;BME280;3631;42.152;24.756;2023-01-28T05:47:53;98863.31;;;4.65;100.00
7180;BME280;3631;42.152;24.756;2023-01-28T05:50:20;98864.28;;;4.58;100.00
7180;BME280;3631;42.152;24.756;2023-01-28T05:52:47;98867.00;;;4.49;100.00
7180;BME280;3631;42.152;24.756;2023-01-28T05:55:14;98887.38;;;4.60;100.00
7180;BME280;3631;42.152;24.756;2023-01-28T05:57:41;98877.78;;;4.71;100.00
7180;BME280;3631;42.152;24.756;2023-01-28T06:00:10;98889.66;;;4.80;100.00
7180;BME280;3631;42.152;24.756;2023-01-28T06:02:37;98892.09;;;4.87;100.00
7180;BME280;3631;42.152;24.756;2023-01-28T06:05:06;98898.91;;;4.90;100.00
7180;BME280;3631;42.152;24.756;2023-01-28T06:07:33;98894.72;;;4.84;100.00
7180;BME280;3631;42.152;24.756;2023-01-28T06:10:00;98899.75;;;4.90;100.00
7180;BME280;3631;42.152;24.756;2023-01-28T06:12:27;98913.53;;;4.86;100.00
7180;BME280;3631;42.152;24.756;2023-01-28T06:14:54;98899.06;;;4.81;100.00
7180;BME280;3631;42.152;24.756;2023-01-28T06:17:21;98911.72;;;4.94;100.00
7180;BME280;3631;42.152;24.756;2023-01-28T06:19:48;98916.75;;;5.00;100.00
7180;BME280;3631;42.152;24.756;2023-01-28T06:22:16;98921.84;;;5.03;100.00
7180;BME280;3631;42.152;24.756;2023-01-28T06:24:43;98907.50;;;4.87;100.00
7180;BME280;3631;42.152;24.756;2023-01-28T06:27:10;98925.41;;;4.96;100.00
7180;BME280;3631;42.152;24.756;2023-01-28T06:29:37;98929.63;;;4.99;100.00
7180;BME280;3631;42.152;24.756;2023-01-28T06:32:04;98934.72;;;5.03;100.00
7180;BME280;3631;42.152;24.756;2023-01-28T06:34:32;98935.63;;;4.99;100.00
7180;BME280;3631;42.152;24.756;2023-01-28T06:36:58;98917.63;;;4.99;100.00
7180;BME280;3631;42.152;24.756;2023-01-28T06:39:27;98939.88;;;5.00;100.00
7180;BME280;3631;42.152;24.756;2023-01-28T06:41:58;98940.56;;;5.11;100.00
7180;BME280;3631;42.152;24.756;2023-01-28T06:44:25;98947.34;;;5.19;100.00
7180;BME280;3631;42.152;24.756;2023-01-28T06:46:52;98956.69;;;5.23;100.00
7180;BME280;3631;42.152;24.756;2023-01-28T06:49:19;98958.41;;;5.21;100.00
7180;BME280;3631;42.152;24.756;2023-01-28T06:51:46;98957.38;;;5.31;100.00
7180;BME280;3631;42.152;24.756;2023-01-28T06:54:13;98962.53;;;5.31;100.00
7180;BME280;3631;42.152;24.756;2023-01-28T06:56:42;98964.03;;;5.44;100.00
7180;BME280;3631;42.152;24.756;2023-01-28T06:59:09;98967.41;;;5.49;100.00
7180;BME280;3631;42.152;24.756;2023-01-28T07:01:36;98951.16;;;5.44;100.00
7180;BME280;3631;42.152;24.756;2023-01-28T07:04:03;98973.28;;;5.54;100.00
7180;BME280;3631;42.152;24.756;2023-01-28T07:06:31;98970.84;;;5.48;100.00
7180;BME280;3631;42.152;24.756;2023-01-28T07:08:58;98972.41;;;5.57;100.00
7180;BME280;3631;42.152;24.756;2023-01-28T07:11:25;98975.78;;;5.60;100.00
7180;BME280;3631;42.152;24.756;2023-01-28T07:13:53;98983.34;;;5.69;100.00
7180;BME280;3631;42.152;24.756;2023-01-28T07:16:21;98976.34;;;5.76;100.00
7180;BME280;3631;42.152;24.756;2023-01-28T07:18:48;98983.81;;;5.93;100.00
7180;BME280;3631;42.152;24.756;2023-01-28T07:21:15;98982.06;;;5.95;100.00
7180;BME280;3631;42.152;24.756;2023-01-28T07:23:42;98980.06;;;6.09;100.00
7180;BME280;3631;42.152;24.756;2023-01-28T07:26:09;98991.06;;;6.17;100.00
7180;BME280;3631;42.152;24.756;2023-01-28T07:28:36;98995.25;;;6.21;100.00
7180;BME280;3631;42.152;24.756;2023-01-28T07:31:05;98995.13;;;6.29;100.00
7180;BME280;3631;42.152;24.756;2023-01-28T07:33:32;99002.09;;;6.24;100.00
7180;BME280;3631;42.152;24.756;2023-01-28T07:35:59;99002.84;;;6.30;100.00
7180;BME280;3631;42.152;24.756;2023-01-28T07:38:26;99002.03;;;6.27;100.00
7180;BME280;3631;42.152;24.756;2023-01-28T07:40:52;99006.06;;;6.40;99.98
7180;BME280;3631;42.152;24.756;2023-01-28T07:43:19;99005.41;;;6.30;100.00
7180;BME280;3631;42.152;24.756;2023-01-28T07:45:46;99013.88;;;6.35;100.00
7180;BME280;3631;42.152;24.756;2023-01-28T07:48:15;99012.13;;;6.37;99.92
7180;BME280;3631;42.152;24.756;2023-01-28T07:50:42;99018.19;;;6.35;100.00
7180;BME280;3631;42.152;24.756;2023-01-28T07:53:10;99014.72;;;6.37;100.00
7180;BME280;3631;42.152;24.756;2023-01-28T07:55:37;99016.38;;;6.41;100.00
7180;BME280;3631;42.152;24.756;2023-01-28T07:58:05;99018.69;;;6.53;99.85
7180;BME280;3631;42.152;24.756;2023-01-28T08:00:34;99016.16;;;6.52;100.00
7180;BME280;3631;42.152;24.756;2023-01-28T08:03:03;99020.19;;;6.64;98.25
7180;BME280;3631;42.152;24.756;2023-01-28T08:05:37;99015.50;;;6.82;97.71
7180;BME280;3631;42.152;24.756;2023-01-28T08:08:06;99019.75;;;6.85;97.45
7180;BME280;3631;42.152;24.756;2023-01-28T08:10:33;99019.75;;;6.85;98.63
7180;BME280;3631;42.152;24.756;2023-01-28T08:13:00;99026.41;;;6.95;98.84
7180;BME280;3631;42.152;24.756;2023-01-28T08:15:27;99033.84;;;7.09;97.42
7180;BME280;3631;42.152;24.756;2023-01-28T08:17:55;99033.09;;;7.02;97.47
7180;BME280;3631;42.152;24.756;2023-01-28T08:20:23;99027.69;;;7.13;96.73
7180;BME280;3631;42.152;24.756;2023-01-28T08:22:52;99043.22;;;7.11;95.66
7180;BME280;3631;42.152;24.756;2023-01-28T08:25:19;99042.91;;;7.25;95.82
7180;BME280;3631;42.152;24.756;2023-01-28T08:27:46;99044.00;;;7.15;95.76
7180;BME280;3631;42.152;24.756;2023-01-28T08:30:13;99049.81;;;7.24;96.35
7180;BME280;3631;42.152;24.756;2023-01-28T08:32:40;99051.50;;;7.25;95.84
7180;BME280;3631;42.152;24.756;2023-01-28T08:35:07;99055.56;;;7.36;95.47
7180;BME280;3631;42.152;24.756;2023-01-28T08:37:34;99055.25;;;7.49;96.52
7180;BME280;3631;42.152;24.756;2023-01-28T08:40:03;99056.72;;;7.59;94.82
7180;BME280;3631;42.152;24.756;2023-01-28T08:42:30;99063.47;;;7.67;94.78
7180;BME280;3631;42.152;24.756;2023-01-28T08:44:57;99067.72;;;7.68;93.03
7180;BME280;3631;42.152;24.756;2023-01-28T08:47:24;99065.66;;;7.82;92.36
7180;BME280;3631;42.152;24.756;2023-01-28T08:49:51;99069.84;;;7.86;92.30
7180;BME280;3631;42.152;24.756;2023-01-28T08:52:18;99063.78;;;7.88;91.32
7180;BME280;3631;42.152;24.756;2023-01-28T08:54:45;99062.22;;;7.81;91.98
7180;BME280;3631;42.152;24.756;2023-01-28T08:57:13;99072.94;;;8.00;90.71
7180;BME280;3631;42.152;24.756;2023-01-28T08:59:40;99077.16;;;8.02;90.54
7180;BME280;3631;42.152;24.756;2023-01-28T09:02:12;99076.97;;;8.12;90.45
7180;BME280;3631;42.152;24.756;2023-01-28T09:04:40;99079.06;;;8.30;90.00
7180;BME280;3631;42.152;24.756;2023-01-28T09:07:07;99073.06;;;8.28;88.98
7180;BME280;3631;42.152;24.756;2023-01-28T09:09:34;99072.25;;;8.26;89.19
7180;BME280;3631;42.152;24.756;2023-01-28T09:12:01;99085.56;;;8.46;89.71
7180;BME280;3631;42.152;24.756;2023-01-28T09:14:29;99060.72;;;8.39;88.20
7180;BME280;3631;42.152;24.756;2023-01-28T09:16:56;99084.91;;;8.69;87.36
7180;BME280;3631;42.152;24.756;2023-01-28T09:19:23;99082.41;;;8.66;87.19
7180;BME280;3631;42.152;24.756;2023-01-28T09:21:50;99088.88;;;8.81;86.53
7180;BME280;3631;42.152;24.756;2023-01-28T09:24:17;99078.53;;;8.81;86.03
7180;BME280;3631;42.152;24.756;2023-01-28T09:26:44;99085.03;;;8.64;86.92
7180;BME280;3631;42.152;24.756;2023-01-28T09:29:11;99090.50;;;8.54;86.53
7180;BME280;3631;42.152;24.756;2023-01-28T09:31:40;99083.84;;;8.45;86.54
7180;BME280;3631;42.152;24.756;2023-01-28T09:34:07;99081.50;;;8.36;86.08
7180;BME280;3631;42.152;24.756;2023-01-28T09:36:34;99078.53;;;8.50;87.94
7180;BME280;3631;42.152;24.756;2023-01-28T09:39:01;99076.53;;;8.59;86.69
7180;BME280;3631;42.152;24.756;2023-01-28T09:41:45;99073.06;;;8.60;86.61
7180;BME280;3631;42.152;24.756;2023-01-28T09:44:32;99085.00;;;8.66;86.03
7180;BME280;3631;42.152;24.756;2023-01-28T09:47:07;99087.22;;;8.80;86.79
7180;BME280;3631;42.152;24.756;2023-01-28T09:49:42;99087.81;;;8.88;86.07
7180;BME280;3631;42.152;24.756;2023-01-28T09:52:13;99087.59;;;8.95;85.71
7180;BME280;3631;42.152;24.756;2023-01-28T09:54:44;99080.75;;;8.93;85.58
7180;BME280;3631;42.152;24.756;2023-01-28T09:57:22;99088.28;;;9.02;86.21
7180;BME280;3631;42.152;24.756;2023-01-28T09:59:50;99071.78;;;9.04;84.74
7180;BME280;3631;42.152;24.756;2023-01-28T10:02:35;99086.03;;;9.19;83.57
7180;BME280;3631;42.152;24.756;2023-01-28T10:05:15;99079.31;;;9.14;83.71
7180;BME280;3631;42.152;24.756;2023-01-28T10:07:49;99080.25;;;9.11;84.87
7180;BME280;3631;42.152;24.756;2023-01-28T10:10:21;99083.56;;;9.15;83.46
7180;BME280;3631;42.152;24.756;2023-01-28T10:13:00;99089.88;;;9.06;84.50
7180;BME280;3631;42.152;24.756;2023-01-28T10:15:46;99086.91;;;9.18;84.18
7180;BME280;3631;42.152;24.756;2023-01-28T10:18:21;99090.69;;;9.08;84.33
7180;BME280;3631;42.152;24.756;2023-01-28T10:20:54;99090.72;;;9.06;83.43
7180;BME280;3631;42.152;24.756;2023-01-28T10:23:26;99092.66;;;9.00;84.45
7180;BME280;3631;42.152;24.756;2023-01-28T10:25:54;99096.09;;;9.00;84.05
7180;BME280;3631;42.152;24.756;2023-01-28T10:28:25;99090.34;;;8.91;84.63
7180;BME280;3631;42.152;24.756;2023-01-28T10:30:53;99089.72;;;8.81;85.36
7180;BME280;3631;42.152;24.756;2023-01-28T10:33:28;99084.66;;;8.78;81.73
7180;BME280;3631;42.152;24.756;2023-01-28T10:35:57;99091.72;;;8.71;82.23
7180;BME280;3631;42.152;24.756;2023-01-28T10:38:26;99085.75;;;8.69;81.99
7180;BME280;3631;42.152;24.756;2023-01-28T10:40:58;99090.84;;;8.72;81.94
7180;BME280;3631;42.152;24.756;2023-01-28T10:43:29;99090.88;;;8.71;82.03
7180;BME280;3631;42.152;24.756;2023-01-28T10:46:00;99091.75;;;8.70;82.42
7180;BME280;3631;42.152;24.756;2023-01-28T10:48:32;99086.56;;;8.71;82.00
7180;BME280;3631;42.152;24.756;2023-01-28T10:51:02;99089.06;;;8.74;81.38
7180;BME280;3631;42.152;24.756;2023-01-28T10:53:35;99081.34;;;8.73;80.97
7180;BME280;3631;42.152;24.756;2023-01-28T10:56:04;99083.25;;;8.66;81.66
7180;BME280;3631;42.152;24.756;2023-01-28T10:58:35;99085.53;;;8.77;81.61
7180;BME280;3631;42.152;24.756;2023-01-28T11:01:05;99085.25;;;8.88;82.05
7180;BME280;3631;42.152;24.756;2023-01-28T11:03:34;99088.44;;;8.96;82.62
7180;BME280;3631;42.152;24.756;2023-01-28T11:06:01;99084.31;;;8.90;81.61
7180;BME280;3631;42.152;24.756;2023-01-28T11:08:29;99088.88;;;8.81;81.24
7180;BME280;3631;42.152;24.756;2023-01-28T11:10:57;99077.88;;;8.74;82.27
7180;BME280;3631;42.152;24.756;2023-01-28T11:13:26;99086.69;;;8.67;82.88
7180;BME280;3631;42.152;24.756;2023-01-28T11:15:58;99079.38;;;8.50;81.96
7180;BME280;3631;42.152;24.756;2023-01-28T11:18:28;99057.09;;;8.46;82.88
7180;BME280;3631;42.152;24.756;2023-01-28T11:20:58;99076.44;;;8.64;83.61
7180;BME280;3631;42.152;24.756;2023-01-28T11:23:27;99073.06;;;8.60;84.68
7180;BME280;3631;42.152;24.756;2023-01-28T11:26:01;99075.69;;;8.59;84.63
7180;BME280;3631;42.152;24.756;2023-01-28T11:28:29;99063.63;;;8.59;84.69
7180;BME280;3631;42.152;24.756;2023-01-28T11:30:59;99077.75;;;8.79;84.66
7180;BME280;3631;42.152;24.756;2023-01-28T11:33:31;99075.13;;;8.80;84.64
7180;BME280;3631;42.152;24.756;2023-01-28T11:36:07;99074.81;;;8.91;85.98
7180;BME280;3631;42.152;24.756;2023-01-28T11:38:34;99071.50;;;8.86;84.88
7180;BME280;3631;42.152;24.756;2023-01-28T11:41:01;99083.97;;;8.71;85.80
7180;BME280;3631;42.152;24.756;2023-01-28T11:43:30;99086.66;;;8.68;84.85
7180;BME280;3631;42.152;24.756;2023-01-28T11:46:07;99081.16;;;8.48;86.18
7180;BME280;3631;42.152;24.756;2023-01-28T11:48:41;99077.81;;;8.46;86.17
7180;BME280;3631;42.152;24.756;2023-01-28T11:51:27;99078.69;;;8.45;86.53
7180;BME280;3631;42.152;24.756;2023-01-28T11:54:10;99083.75;;;8.48;87.11
7180;BME280;3631;42.152;24.756;2023-01-28T11:57:08;99084.56;;;8.50;86.97
7180;BME280;3631;42.152;24.756;2023-01-28T11:59:53;99091.53;;;8.47;86.40
7180;BME280;3631;42.152;24.756;2023-01-28T12:02:46;99084.81;;;8.41;87.55
7180;BME280;3631;42.152;24.756;2023-01-28T12:05:45;99084.25;;;8.28;86.97
7180;BME280;3631;42.152;24.756;2023-01-28T12:08:20;99084.56;;;8.16;87.23
7180;BME280;3631;42.152;24.756;2023-01-28T12:10:59;99092.06;;;8.27;87.86
7180;BME280;3631;42.152;24.756;2023-01-28T12:13:43;99095.41;;;8.32;87.09
7180;BME280;3631;42.152;24.756;2023-01-28T12:16:24;99098.00;;;8.30;86.90
7180;BME280;3631;42.152;24.756;2023-01-28T12:19:05;99091.16;;;8.28;87.42
7180;BME280;3631;42.152;24.756;2023-01-28T12:21:43;99098.72;;;8.37;87.00
7180;BME280;3631;42.152;24.756;2023-01-28T12:24:26;99108.06;;;8.43;86.90
7180;BME280;3631;42.152;24.756;2023-01-28T12:27:05;99105.50;;;8.41;86.92
7180;BME280;3631;42.152;24.756;2023-01-28T12:29:43;99100.59;;;8.32;88.14
7180;BME280;3631;42.152;24.756;2023-01-28T12:32:27;99106.00;;;8.21;88.48
7180;BME280;3631;42.152;24.756;2023-01-28T12:35:27;99102.88;;;8.09;88.70
7180;BME280;3631;42.152;24.756;2023-01-28T12:38:06;99111.78;;;7.97;88.54
7180;BME280;3631;42.152;24.756;2023-01-28T12:40:59;99112.16;;;7.82;89.36
7180;BME280;3631;42.152;24.756;2023-01-28T12:43:41;99108.00;;;7.76;89.51
7180;BME280;3631;42.152;24.756;2023-01-28T12:46:15;99118.34;;;7.75;90.40
7180;BME280;3631;42.152;24.756;2023-01-28T12:48:46;99117.50;;;7.74;90.25
7180;BME280;3631;42.152;24.756;2023-01-28T12:51:20;99128.16;;;7.60;91.37
7180;BME280;3631;42.152;24.756;2023-01-28T12:53:52;99129.22;;;7.52;92.84
7180;BME280;3631;42.152;24.756;2023-01-28T12:56:27;99130.25;;;7.45;93.43
7180;BME280;3631;42.152;24.756;2023-01-28T12:59:01;99122.03;;;7.26;94.27
7180;BME280;3631;42.152;24.756;2023-01-28T13:01:36;99135.19;;;7.15;93.93
7180;BME280;3631;42.152;24.756;2023-01-28T13:04:09;99134.31;;;7.16;94.42
7180;BME280;3631;42.152;24.756;2023-01-28T13:06:41;99134.31;;;7.16;95.73
7180;BME280;3631;42.152;24.756;2023-01-28T13:09:13;99125.06;;;7.06;96.11
7180;BME280;3631;42.152;24.756;2023-01-28T13:11:44;99143.75;;;7.17;94.86
7180;BME280;3631;42.152;24.756;2023-01-28T13:14:13;99149.03;;;7.11;94.63
7180;BME280;3631;42.152;24.756;2023-01-28T13:16:40;99145.00;;;6.98;95.10
7180;BME280;3631;42.152;24.756;2023-01-28T13:19:21;99146.75;;;6.98;94.49
7180;BME280;3631;42.152;24.756;2023-01-28T13:21:48;99153.63;;;6.97;94.68
7180;BME280;3631;42.152;24.756;2023-01-28T13:24:29;99155.44;;;6.92;93.93
7180;BME280;3631;42.152;24.756;2023-01-28T13:27:10;99147.25;;;6.72;94.82
7180;BME280;3631;42.152;24.756;2023-01-28T13:29:38;99156.72;;;6.71;95.53
7180;BME280;3631;42.152;24.756;2023-01-28T13:32:33;99155.16;;;6.63;96.71
7180;BME280;3631;42.152;24.756;2023-01-28T13:35:02;99161.00;;;6.71;96.34
7180;BME280;3631;42.152;24.756;2023-01-28T13:37:33;99164.50;;;6.68;96.60